Time;durP1;ratioP1;P1;durP2;ratioP2;P2;SDS_P1;SDS_P2;PMS_P1;PMS_P2;Temp;Humidity;BMP_temperature;BMP_pressure;BME280_temperature;BME280_humidity;BME280_pressure;Samples;Min_cycle;Max_cycle;Signal;HPM_P1;HPM_P2
2022/07/23 00:01:33;;;;;;;;;;;;;;;16.05;71.72;99185.94;4714995;30;19962;-82
2022/07/23 00:04:01;;;;;;;;;;;;;;;16.01;72.33;99179.44;4715204;30;19938;-80
2022/07/23 00:06:30;;;;;;;;;;;;;;;16.01;72.63;99188.41;4715856;30;20032;-82
2022/07/23 00:08:57;;;;;;;;;;;;;;;15.94;73.01;99192.50;4714137;30;19941;-83
2022/07/23 00:11:25;;;;;;;;;;;;;;;15.90;73.16;99197.72;4715441;30;19930;-81
2022/07/23 00:13:53;;;;;;;;;;;;;;;15.94;73.13;99190.59;4715213;30;19966;-82
2022/07/23 00:16:20;;;;;;;;;;;;;;;15.94;73.07;99184.34;4715581;30;19931;-81
2022/07/23 00:18:47;;;;;;;;;;;;;;;15.90;73.08;99186.81;4715382;30;20307;-81
2022/07/23 00:21:14;;;;;;;;;;;;;;;15.88;73.36;99177.31;4715828;30;19931;-81
2022/07/23 00:23:41;;;;;;;;;;;;;;;15.85;73.56;99178.66;4714364;30;19930;-82
2022/07/23 00:26:08;;;;;;;;;;;;;;;15.84;73.68;99182.47;4715247;30;20402;-81
2022/07/23 00:28:36;;;;;;;;;;;;;;;15.80;73.88;99184.13;4715383;30;19937;-81
2022/07/23 00:31:03;;;;;;;;;;;;;;;15.77;73.63;99184.66;4714090;30;19940;-81
2022/07/23 00:33:30;;;;;;;;;;;;;;;15.76;73.47;99188.47;4714237;30;19980;-82
2022/07/23 00:35:57;;;;;;;;;;;;;;;15.69;73.74;99183.28;4714037;30;19938;-81
2022/07/23 00:38:27;;;;;;;;;;;;;;;15.67;73.63;99198.22;4719402;30;19936;-82
2022/07/23 00:40:56;;;;;;;;;;;;;;;15.63;73.53;99189.00;4731328;30;19936;-82
2022/07/23 00:43:23;;;;;;;;;;;;;;;15.68;73.43;99184.34;4731179;30;19930;-81
2022/07/23 00:45:50;;;;;;;;;;;;;;;15.65;73.50;99184.06;4732217;30;19970;-80
2022/07/23 00:48:17;;;;;;;;;;;;;;;15.62;73.68;99185.44;4731234;30;20025;-82
2022/07/23 00:50:44;;;;;;;;;;;;;;;15.58;73.81;99193.34;4731298;30;19931;-81
2022/07/23 00:53:11;;;;;;;;;;;;;;;15.49;74.13;99192.25;4716683;30;19931;-81
2022/07/23 00:55:38;;;;;;;;;;;;;;;15.49;74.42;99191.44;4731165;30;19988;-81
2022/07/23 00:58:06;;;;;;;;;;;;;;;15.47;74.46;99188.16;4731131;30;19934;-81
2022/07/23 01:00:35;;;;;;;;;;;;;;;15.49;74.48;99192.25;4718470;30;19988;-82
2022/07/23 01:03:02;;;;;;;;;;;;;;;15.51;74.62;99190.06;4734915;30;19930;-81
2022/07/23 01:05:29;;;;;;;;;;;;;;;15.43;74.75;99196.06;4734593;30;19980;-81
2022/07/23 01:07:56;;;;;;;;;;;;;;;15.43;75.31;99184.38;4734764;30;20014;-82
2022/07/23 01:10:32;;;;;;;;;;;;;;;15.42;75.27;99185.44;4734794;30;19988;-82
2022/07/23 01:13:04;;;;;;;;;;;;;;;15.36;75.53;99188.16;4735494;30;19936;-81
2022/07/23 01:15:31;;;;;;;;;;;;;;;15.35;75.87;99189.25;4735852;30;19930;-81
2022/07/23 01:17:59;;;;;;;;;;;;;;;15.32;75.76;99192.53;4734337;30;20302;-82
2022/07/23 01:20:27;;;;;;;;;;;;;;;15.27;75.93;99189.81;4720036;30;19930;-81
2022/07/23 01:22:55;;;;;;;;;;;;;;;15.22;76.14;99195.25;4734291;30;19983;-81
2022/07/23 01:25:22;;;;;;;;;;;;;;;15.20;76.25;99194.69;4734408;30;19994;-81
2022/07/23 01:27:54;;;;;;;;;;;;;;;15.20;76.46;99188.44;4734131;30;19966;-81
2022/07/23 01:30:25;;;;;;;;;;;;;;;15.20;76.69;99193.88;4734495;30;19964;-82
2022/07/23 01:32:53;;;;;;;;;;;;;;;15.22;76.88;99197.97;4734417;30;19985;-82
2022/07/23 01:35:20;;;;;;;;;;;;;;;15.24;76.96;99194.97;4719946;30;19970;-81
2022/07/23 01:37:52;;;;;;;;;;;;;;;15.27;77.18;99189.00;4734046;30;20422;-80
2022/07/23 01:40:23;;;;;;;;;;;;;;;15.27;77.13;99191.72;4734350;30;20386;-82
2022/07/23 01:42:52;;;;;;;;;;;;;;;15.26;77.33;99188.16;4734048;30;19930;-80
2022/07/23 01:45:20;;;;;;;;;;;;;;;15.26;77.53;99190.06;4734195;30;19930;-81
2022/07/23 01:47:50;;;;;;;;;;;;;;;15.24;77.13;99195.75;4719209;30;19930;-81
2022/07/23 01:50:18;;;;;;;;;;;;;;;15.25;77.40;99197.41;4719689;30;19930;-81
2022/07/23 01:53:00;;;;;;;;;;;;;;;15.34;77.16;99190.38;4734889;30;20466;-81
2022/07/23 01:55:27;;;;;;;;;;;;;;;15.40;76.96;99191.19;4733921;30;20300;-81
2022/07/23 01:57:54;;;;;;;;;;;;;;;15.44;76.86;99189.53;4733527;30;20413;-81
2022/07/23 02:00:27;;;;;;;;;;;;;;;15.46;76.82;99190.06;4733767;30;20346;-82
2022/07/23 02:02:54;;;;;;;;;;;;;;;15.48;76.72;99185.19;4733769;30;20323;-81
2022/07/23 02:05:21;;;;;;;;;;;;;;;15.55;76.67;99190.38;4719352;30;19931;-82
2022/07/23 02:07:48;;;;;;;;;;;;;;;15.65;76.52;99197.69;4734845;30;20512;-82
2022/07/23 02:10:15;;;;;;;;;;;;;;;15.76;76.15;99183.03;4733658;30;20453;-81
2022/07/23 02:12:42;;;;;;;;;;;;;;;15.78;76.31;99183.56;4734142;30;20420;-81
2022/07/23 02:15:29;;;;;;;;;;;;;;;15.80;76.23;99176.75;4734071;30;19930;-82
2022/07/23 02:17:58;;;;;;;;;;;;;;;15.83;76.14;99189.00;4733401;30;20334;-81
2022/07/23 02:20:25;;;;;;;;;;;;;;;15.89;76.00;99185.16;4734764;30;19930;-80
2022/07/23 02:22:52;;;;;;;;;;;;;;;15.97;75.83;99183.78;4733088;30;19937;-81
2022/07/23 02:25:21;;;;;;;;;;;;;;;16.02;75.49;99191.94;4733349;30;20024;-81
2022/07/23 02:27:56;;;;;;;;;;;;;;;16.05;75.36;99194.13;4733299;30;19980;-81
2022/07/23 02:30:23;;;;;;;;;;;;;;;16.08;75.15;99193.59;4733460;30;19930;-81
2022/07/23 02:32:51;;;;;;;;;;;;;;;16.09;75.06;99184.31;4732644;30;19930;-81
2022/07/23 02:35:21;;;;;;;;;;;;;;;16.15;75.35;99185.91;4733195;30;19934;-80
2022/07/23 02:37:48;;;;;;;;;;;;;;;16.21;75.16;99186.75;4732942;30;19969;-83
2022/07/23 02:40:17;;;;;;;;;;;;;;;16.31;74.91;99192.16;4719113;30;20082;-80
2022/07/23 02:42:44;;;;;;;;;;;;;;;16.35;74.77;99185.03;4718814;30;20391;-81
2022/07/23 02:45:11;;;;;;;;;;;;;;;16.42;74.54;99185.56;4718711;30;20041;-81
2022/07/23 02:47:41;;;;;;;;;;;;;;;16.50;74.25;99197.78;4734190;30;19936;-81
2022/07/23 02:50:11;;;;;;;;;;;;;;;16.56;74.06;99187.69;4732759;30;19934;-82
2022/07/23 02:52:39;;;;;;;;;;;;;;;16.61;73.68;99196.66;4734276;30;19930;-81
2022/07/23 02:55:06;;;;;;;;;;;;;;;16.66;73.67;99191.19;4734215;30;20384;-81
2022/07/23 02:57:34;;;;;;;;;;;;;;;16.71;73.51;99193.09;4732730;30;20025;-81
2022/07/23 03:00:01;;;;;;;;;;;;;;;16.80;73.28;99199.59;4718377;30;19936;-82
2022/07/23 03:02:29;;;;;;;;;;;;;;;16.86;73.18;99193.03;4732953;30;19930;-82
2022/07/23 03:04:56;;;;;;;;;;;;;;;16.96;72.75;99204.94;4733611;30;20017;-81
2022/07/23 03:07:23;;;;;;;;;;;;;;;17.03;72.61;99200.81;4732681;30;20455;-81
2022/07/23 03:09:54;;;;;;;;;;;;;;;17.15;72.45;99205.94;4732693;30;19930;-80
2022/07/23 03:12:22;;;;;;;;;;;;;;;17.27;71.91;99200.13;4732554;30;20357;-82
2022/07/23 03:14:49;;;;;;;;;;;;;;;17.42;71.81;99204.63;4717842;30;20375;-81
2022/07/23 03:17:16;;;;;;;;;;;;;;;17.53;71.58;99203.47;4732765;30;19930;-81
2022/07/23 03:19:43;;;;;;;;;;;;;;;17.65;71.41;99206.66;4732722;30;19930;-80
2022/07/23 03:22:10;;;;;;;;;;;;;;;17.78;71.04;99202.44;4733616;30;20357;-81
2022/07/23 03:24:56;;;;;;;;;;;;;;;17.87;70.90;99216.31;4732463;30;20486;-81
2022/07/23 03:27:26;;;;;;;;;;;;;;;17.95;70.54;99208.31;4732185;30;19930;-81
2022/07/23 03:29:55;;;;;;;;;;;;;;;18.06;70.19;99211.75;4717559;30;19937;-82
2022/07/23 03:32:22;;;;;;;;;;;;;;;18.16;70.18;99214.38;4732285;30;19980;-82
2022/07/23 03:34:50;;;;;;;;;;;;;;;18.30;69.71;99213.69;4731949;30;19931;-81
2022/07/23 03:37:18;;;;;;;;;;;;;;;18.37;69.34;99214.16;4732271;30;19941;-80
2022/07/23 03:39:46;;;;;;;;;;;;;;;18.50;68.98;99215.38;4732098;30;19958;-81
2022/07/23 03:42:13;;;;;;;;;;;;;;;18.59;68.96;99208.97;4732238;30;19930;-82
2022/07/23 03:44:40;;;;;;;;;;;;;;;18.66;68.73;99205.06;4731833;30;19937;-81
2022/07/23 03:47:12;;;;;;;;;;;;;;;18.67;68.75;99206.69;4702071;30;20728;-80
2022/07/23 03:49:40;;;;;;;;;;;;;;;18.69;69.00;99204.50;4732045;30;19988;-81
2022/07/23 03:52:08;;;;;;;;;;;;;;;18.74;68.96;99202.50;4731943;30;20373;-80
2022/07/23 03:54:35;;;;;;;;;;;;;;;18.81;68.77;99211.19;4733484;30;20344;-80
2022/07/23 03:57:02;;;;;;;;;;;;;;;18.90;68.53;99213.25;4732816;30;19930;-81
2022/07/23 03:59:30;;;;;;;;;;;;;;;19.00;68.48;99211.19;4717636;30;20365;-82
2022/07/23 04:01:58;;;;;;;;;;;;;;;19.13;68.34;99214.31;4731949;30;19940;-81
2022/07/23 04:04:25;;;;;;;;;;;;;;;19.23;68.39;99214.16;4731624;30;20318;-81
2022/07/23 04:06:52;;;;;;;;;;;;;;;19.32;67.87;99208.81;4716997;30;19937;-82
2022/07/23 04:09:22;;;;;;;;;;;;;;;19.42;67.74;99206.75;4731781;30;19969;-81
2022/07/23 04:11:49;;;;;;;;;;;;;;;19.53;67.48;99210.13;4732656;30;19931;-81
2022/07/23 04:14:17;;;;;;;;;;;;;;;19.65;67.03;99215.94;4731650;30;19992;-81
2022/07/23 04:16:45;;;;;;;;;;;;;;;19.76;66.71;99213.06;4731625;30;19937;-81
2022/07/23 04:19:13;;;;;;;;;;;;;;;19.81;66.42;99213.78;4719708;30;19931;-81
2022/07/23 04:21:52;;;;;;;;;;;;;;;19.89;65.98;99215.03;4709417;30;20495;-83
2022/07/23 04:24:21;;;;;;;;;;;;;;;19.97;65.99;99213.50;4734493;30;19938;-82
2022/07/23 04:26:49;;;;;;;;;;;;;;;20.06;65.56;99211.72;4713358;30;19966;-82
2022/07/23 04:29:15;;;;;;;;;;;;;;;20.16;65.48;99222.47;4736293;30;19931;-81
2022/07/23 04:31:43;;;;;;;;;;;;;;;20.26;65.11;99224.22;4714214;30;19931;-80
2022/07/23 04:34:10;;;;;;;;;;;;;;;20.35;64.93;99220.44;4715897;30;19931;-81
2022/07/23 04:36:37;;;;;;;;;;;;;;;20.44;64.85;99211.53;4714457;30;19931;-84
2022/07/23 04:39:23;;;;;;;;;;;;;;;20.54;64.60;99208.59;4728105;30;19934;-82
2022/07/23 04:41:52;;;;;;;;;;;;;;;20.63;64.45;99205.97;4715904;30;19937;-82
2022/07/23 04:44:19;;;;;;;;;;;;;;;20.72;64.32;99206.88;4714714;30;20543;-83
2022/07/23 04:46:47;;;;;;;;;;;;;;;20.80;64.12;99199.84;4713834;30;20551;-81
2022/07/23 04:49:16;;;;;;;;;;;;;;;20.85;63.96;99205.22;4711000;30;20426;-80
2022/07/23 04:51:45;;;;;;;;;;;;;;;20.95;63.83;99203.06;4713308;30;20391;-80
2022/07/23 04:54:40;;;;;;;;;;;;;;;21.03;63.50;99196.03;4699395;30;19938;-81
2022/07/23 04:57:07;;;;;;;;;;;;;;;21.12;63.57;99196.94;4714471;30;19931;-81
2022/07/23 04:59:34;;;;;;;;;;;;;;;21.27;63.22;99192.19;4715464;30;19931;-81
2022/07/23 05:02:03;;;;;;;;;;;;;;;21.40;63.09;99194.94;4698871;30;20453;-81
2022/07/23 05:04:31;;;;;;;;;;;;;;;21.49;62.49;99189.50;4713183;30;20380;-81
2022/07/23 05:07:03;;;;;;;;;;;;;;;21.55;62.46;99191.00;4718911;30;19937;-79
2022/07/23 05:09:34;;;;;;;;;;;;;;;21.63;62.02;99190.25;4721279;30;19941;-81
2022/07/23 05:12:04;;;;;;;;;;;;;;;21.74;61.97;99189.97;4719820;30;19989;-81
2022/07/23 05:14:31;;;;;;;;;;;;;;;21.85;61.73;99188.56;4743699;30;19937;-80
2022/07/23 05:17:01;;;;;;;;;;;;;;;21.98;61.71;99192.38;4722232;30;19987;-81
2022/07/23 05:19:28;;;;;;;;;;;;;;;22.07;61.13;99188.53;4724484;30;19934;-81
2022/07/23 05:21:55;;;;;;;;;;;;;;;22.20;61.01;99197.03;4720760;30;19931;-82
2022/07/23 05:24:22;;;;;;;;;;;;;;;22.33;60.57;99196.09;4722089;30;20478;-81
2022/07/23 05:26:50;;;;;;;;;;;;;;;22.49;60.49;99197.31;4722061;30;19938;-81
2022/07/23 05:29:17;;;;;;;;;;;;;;;22.63;60.17;99194.41;4720616;30;19931;-81
2022/07/23 05:31:44;;;;;;;;;;;;;;;22.71;60.02;99195.56;4721492;30;19977;-80
2022/07/23 05:34:17;;;;;;;;;;;;;;;22.80;59.36;99193.66;4720186;30;19931;-80
2022/07/23 05:36:48;;;;;;;;;;;;;;;22.83;59.13;99193.00;4721496;30;20004;-81
2022/07/23 05:39:16;;;;;;;;;;;;;;;22.98;59.02;99189.03;4722229;30;19930;-80
2022/07/23 05:41:43;;;;;;;;;;;;;;;23.06;59.24;99188.22;4721030;30;20367;-80
2022/07/23 05:44:10;;;;;;;;;;;;;;;23.18;58.62;99195.84;4720937;30;20024;-81
2022/07/23 05:46:39;;;;;;;;;;;;;;;23.26;58.14;99194.22;4718657;30;19934;-80
2022/07/23 05:49:22;;;;;;;;;;;;;;;23.41;58.32;99190.16;4709235;30;19937;-80
2022/07/23 05:52:15;;;;;;;;;;;;;;;23.56;57.44;99186.91;4721754;30;19930;-81
2022/07/23 05:55:02;;;;;;;;;;;;;;;23.68;57.46;99189.81;4722503;30;19937;-82
2022/07/23 05:57:29;;;;;;;;;;;;;;;23.71;56.91;99191.91;4724326;30;19985;-81
2022/07/23 05:59:58;;;;;;;;;;;;;;;23.73;56.63;99195.16;4726855;30;19981;-80
2022/07/23 06:02:26;;;;;;;;;;;;;;;23.82;56.95;99186.88;4721148;30;19970;-80
2022/07/23 06:04:53;;;;;;;;;;;;;;;23.91;56.40;99192.38;4723944;30;19973;-80
2022/07/23 06:07:29;;;;;;;;;;;;;;;24.00;55.84;99190.38;4709675;30;20456;-80
2022/07/23 06:09:56;;;;;;;;;;;;;;;24.08;56.00;99191.50;4706761;30;20280;-80
2022/07/23 06:12:25;;;;;;;;;;;;;;;24.03;54.82;99189.75;4746505;30;19930;-80
2022/07/23 06:14:54;;;;;;;;;;;;;;;24.07;54.94;99193.44;4710578;30;19979;-81
2022/07/23 06:17:23;;;;;;;;;;;;;;;24.11;54.43;99190.84;4725272;30;19938;-81
2022/07/23 06:19:51;;;;;;;;;;;;;;;24.13;53.44;99192.13;4725317;30;20383;-81
2022/07/23 06:22:24;;;;;;;;;;;;;;;24.05;52.87;99181.13;4721182;30;19946;-81
2022/07/23 06:24:54;;;;;;;;;;;;;;;24.07;53.27;99185.19;4724048;30;20410;-80
2022/07/23 06:27:21;;;;;;;;;;;;;;;24.14;53.08;99185.47;4708424;30;19981;-81
2022/07/23 06:29:52;;;;;;;;;;;;;;;24.17;52.88;99178.50;4724160;30;19996;-80
2022/07/23 06:32:19;;;;;;;;;;;;;;;24.25;52.92;99185.91;4721782;30;19934;-82
2022/07/23 06:34:46;;;;;;;;;;;;;;;24.20;52.55;99183.34;4716458;30;19931;-83
2022/07/23 06:37:14;;;;;;;;;;;;;;;24.25;52.26;99182.34;4718106;30;20034;-85
2022/07/23 06:39:45;;;;;;;;;;;;;;;24.33;52.63;99182.31;4702923;30;19931;-82
2022/07/23 06:42:13;;;;;;;;;;;;;;;24.44;52.47;99175.28;4717269;30;19942;-83
2022/07/23 06:44:44;;;;;;;;;;;;;;;24.50;51.45;99180.63;4702486;30;19935;-83
2022/07/23 06:47:14;;;;;;;;;;;;;;;24.55;51.16;99172.97;4718125;30;19973;-82
2022/07/23 06:49:44;;;;;;;;;;;;;;;24.60;50.83;99175.53;4720802;30;19953;-81
2022/07/23 06:52:29;;;;;;;;;;;;;;;24.67;50.95;99179.75;4721432;30;20395;-81
2022/07/23 06:54:56;;;;;;;;;;;;;;;24.67;50.21;99177.78;4726361;30;19941;-82
2022/07/23 06:57:25;;;;;;;;;;;;;;;24.76;50.45;99180.47;4723745;30;19937;-81
2022/07/23 06:59:52;;;;;;;;;;;;;;;24.93;49.88;99168.53;4720056;30;19938;-83
2022/07/23 07:02:21;;;;;;;;;;;;;;;25.08;49.56;99174.22;4723756;30;19930;-82
2022/07/23 07:04:48;;;;;;;;;;;;;;;25.18;49.58;99175.00;4723771;30;19930;-82
2022/07/23 07:07:15;;;;;;;;;;;;;;;25.31;49.43;99173.91;4725332;30;20037;-83
2022/07/23 07:09:42;;;;;;;;;;;;;;;25.40;47.91;99177.41;4724105;30;20361;-83
2022/07/23 07:12:19;;;;;;;;;;;;;;;25.51;47.70;99175.03;4723391;30;20391;-83
2022/07/23 07:14:46;;;;;;;;;;;;;;;25.57;46.85;99172.88;4724572;30;19937;-82
2022/07/23 07:17:15;;;;;;;;;;;;;;;25.65;46.95;99175.56;4723571;30;20679;-83
2022/07/23 07:19:46;;;;;;;;;;;;;;;25.83;47.11;99169.84;4723167;30;20356;-82
2022/07/23 07:22:13;;;;;;;;;;;;;;;25.93;46.69;99175.75;4726595;30;19954;-83
2022/07/23 07:24:40;;;;;;;;;;;;;;;26.09;46.50;99175.09;4723717;30;19930;-82
2022/07/23 07:27:07;;;;;;;;;;;;;;;26.10;46.12;99169.19;4723997;30;19953;-83
2022/07/23 07:29:36;;;;;;;;;;;;;;;26.22;45.72;99176.72;4725261;30;19937;-82
2022/07/23 07:32:03;;;;;;;;;;;;;;;26.31;45.37;99176.63;4724066;30;20057;-83
2022/07/23 07:34:31;;;;;;;;;;;;;;;26.54;45.33;99186.09;4722408;30;20383;-83
2022/07/23 07:36:58;;;;;;;;;;;;;;;26.69;44.78;99179.06;4724855;30;19931;-82
2022/07/23 07:39:24;;;;;;;;;;;;;;;26.81;44.53;99178.22;4722602;30;19930;-83
2022/07/23 07:41:51;;;;;;;;;;;;;;;26.85;43.48;99179.13;4720147;30;19931;-82
2022/07/23 07:44:18;;;;;;;;;;;;;;;27.00;43.45;99178.41;4716468;30;19989;-83
2022/07/23 07:46:45;;;;;;;;;;;;;;;27.14;43.46;99174.44;4725159;30;19930;-83
2022/07/23 07:49:12;;;;;;;;;;;;;;;27.26;41.76;99173.63;4725039;30;19937;-81
2022/07/23 07:51:42;;;;;;;;;;;;;;;27.15;42.41;99168.56;4723001;30;19962;-82
2022/07/23 07:54:11;;;;;;;;;;;;;;;26.96;43.08;99176.69;4729853;30;19962;-83
2022/07/23 07:56:39;;;;;;;;;;;;;;;26.97;43.27;99176.34;4721133;30;19981;-83
2022/07/23 07:59:06;;;;;;;;;;;;;;;27.15;42.75;99174.09;4714227;30;19931;-83
2022/07/23 08:01:33;;;;;;;;;;;;;;;27.04;42.66;99175.72;4723568;30;19937;-83
2022/07/23 08:04:00;;;;;;;;;;;;;;;27.31;42.04;99176.16;4713519;30;19935;-83
2022/07/23 08:06:27;;;;;;;;;;;;;;;27.63;41.55;99179.81;4712573;30;20026;-84
2022/07/23 08:08:54;;;;;;;;;;;;;;;27.84;39.98;99174.88;4729474;30;19941;-85
2022/07/23 08:11:21;;;;;;;;;;;;;;;27.44;40.53;99170.19;4710915;30;19974;-82
2022/07/23 08:13:49;;;;;;;;;;;;;;;27.05;41.04;99177.38;4712557;30;19981;-82
2022/07/23 08:16:16;;;;;;;;;;;;;;;26.75;42.46;99182.38;4723080;30;19930;-83
2022/07/23 08:18:43;;;;;;;;;;;;;;;26.68;43.20;99177.41;4723245;30;19931;-82
2022/07/23 08:21:09;;;;;;;;;;;;;;;26.56;43.31;99175.50;4722669;30;20007;-83
2022/07/23 08:23:36;;;;;;;;;;;;;;;26.59;43.10;99176.75;4724022;30;20395;-83
2022/07/23 08:26:03;;;;;;;;;;;;;;;26.50;42.59;99178.78;4717046;30;19931;-82
2022/07/23 08:28:33;;;;;;;;;;;;;;;26.22;42.74;99182.25;4715480;30;20086;-83
2022/07/23 08:31:00;;;;;;;;;;;;;;;26.28;43.33;99180.88;4715580;30;19939;-85
2022/07/23 08:33:28;;;;;;;;;;;;;;;26.86;42.45;99177.16;4718067;30;19988;-83
2022/07/23 08:36:15;;;;;;;;;;;;;;;27.93;40.89;99174.72;4714979;30;20037;-84
2022/07/23 08:38:43;;;;;;;;;;;;;;;28.51;39.88;99176.94;4715403;30;19930;-84
2022/07/23 08:41:10;;;;;;;;;;;;;;;29.17;39.31;99167.75;4715319;30;19942;-83
2022/07/23 08:43:40;;;;;;;;;;;;;;;29.68;38.19;99161.25;4715194;30;19930;-83
2022/07/23 08:46:11;;;;;;;;;;;;;;;29.72;38.25;99156.53;4714377;30;20498;-81
2022/07/23 08:48:40;;;;;;;;;;;;;;;29.58;38.96;99157.06;4714468;30;20330;-83
2022/07/23 08:51:10;;;;;;;;;;;;;;;29.64;38.86;99165.88;4714318;30;19930;-84
2022/07/23 08:53:38;;;;;;;;;;;;;;;28.96;38.93;99159.72;4714919;30;20296;-82
2022/07/23 08:56:06;;;;;;;;;;;;;;;28.16;39.99;99161.03;4714352;30;20026;-83
2022/07/23 08:58:34;;;;;;;;;;;;;;;28.63;39.42;99159.38;4714255;30;20021;-83
2022/07/23 09:01:01;;;;;;;;;;;;;;;29.52;37.91;99152.16;4713107;30;19961;-83
2022/07/23 09:03:29;;;;;;;;;;;;;;;30.24;36.67;99154.28;4713748;30;19988;-84
2022/07/23 09:05:57;;;;;;;;;;;;;;;30.74;35.19;99154.22;4714126;30;19973;-83
2022/07/23 09:08:33;;;;;;;;;;;;;;;30.54;34.78;99159.94;4715062;30;19931;-84
2022/07/23 09:11:03;;;;;;;;;;;;;;;31.02;34.83;99157.44;4725212;30;20292;-84
2022/07/23 09:13:34;;;;;;;;;;;;;;;31.29;33.75;99157.38;4720710;30;20399;-86
2022/07/23 09:16:18;;;;;;;;;;;;;;;30.42;34.75;99157.34;4723284;30;19938;-84
2022/07/23 09:18:47;;;;;;;;;;;;;;;31.21;34.23;99148.13;4718798;30;19941;-84
2022/07/23 09:21:34;;;;;;;;;;;;;;;31.60;33.69;99150.59;4724317;30;20026;-84
2022/07/23 09:24:02;;;;;;;;;;;;;;;32.25;32.90;99146.41;4724912;30;20004;-85
2022/07/23 09:26:40;;;;;;;;;;;;;;;32.76;31.54;99159.56;4746135;30;19961;-83
2022/07/23 09:29:16;;;;;;;;;;;;;;;32.86;30.83;99148.84;4731634;30;20315;-84
2022/07/23 09:31:45;;;;;;;;;;;;;;;33.32;30.42;99146.25;4736099;30;20028;-84
2022/07/23 09:34:12;;;;;;;;;;;;;;;33.50;30.06;99143.53;4734948;30;19930;-84
2022/07/23 09:36:39;;;;;;;;;;;;;;;31.94;30.52;99154.13;4734639;30;20593;-84
2022/07/23 09:39:07;;;;;;;;;;;;;;;30.70;32.49;99153.38;4735769;30;19938;-83
2022/07/23 09:41:37;;;;;;;;;;;;;;;31.00;31.87;99148.66;4735880;30;19980;-83
2022/07/23 09:44:22;;;;;;;;;;;;;;;31.73;31.09;99137.16;4727981;30;20029;-83
2022/07/23 09:46:57;;;;;;;;;;;;;;;32.12;30.55;99139.53;4717004;30;20426;-85
2022/07/23 09:49:25;;;;;;;;;;;;;;;32.00;31.22;99134.25;4718268;30;20396;-84
2022/07/23 09:51:52;;;;;;;;;;;;;;;32.04;31.10;99129.50;4717959;30;19931;-84
2022/07/23 09:54:26;;;;;;;;;;;;;;;31.86;31.28;99130.13;4718128;30;19934;-83
2022/07/23 09:56:56;;;;;;;;;;;;;;;32.53;30.67;99123.50;4717851;30;19931;-84
2022/07/23 09:59:26;;;;;;;;;;;;;;;32.36;30.88;99126.94;4717852;30;19964;-84
2022/07/23 10:01:54;;;;;;;;;;;;;;;32.01;31.06;99125.50;4722692;30;19930;-85
2022/07/23 10:04:24;;;;;;;;;;;;;;;31.76;30.97;99122.44;4705319;30;19931;-83
2022/07/23 10:07:14;;;;;;;;;;;;;;;31.89;30.95;99129.34;4726177;30;19931;-82
2022/07/23 10:10:01;;;;;;;;;;;;;;;32.43;30.32;99117.81;4717048;30;19938;-83
2022/07/23 10:15:25;;;;;;;;;;;;;;;33.10;29.19;99117.44;4716756;30;19985;-83
2022/07/23 10:17:52;;;;;;;;;;;;;;;33.74;28.92;99119.63;4717693;30;19937;-83
2022/07/23 10:20:19;;;;;;;;;;;;;;;34.60;28.59;99111.22;4717798;30;19930;-84
2022/07/23 10:23:09;;;;;;;;;;;;;;;35.19;27.97;99112.63;4717745;30;19950;-83
2022/07/23 10:25:39;;;;;;;;;;;;;;;35.38;27.35;99115.72;4718234;30;19930;-83
2022/07/23 10:28:24;;;;;;;;;;;;;;;35.39;27.59;99106.09;4716537;30;20304;-85
2022/07/23 10:31:14;;;;;;;;;;;;;;;35.52;26.70;99111.22;4717243;30;20040;-84
2022/07/23 10:34:20;;;;;;;;;;;;;;;35.33;26.03;99104.94;4698814;30;19934;-83
2022/07/23 10:36:50;;;;;;;;;;;;;;;34.48;26.21;99092.78;4715343;30;20045;-85
2022/07/23 10:39:28;;;;;;;;;;;;;;;34.09;27.16;99099.25;4716179;30;20033;-83
2022/07/23 10:42:08;;;;;;;;;;;;;;;33.79;27.21;99090.44;4715786;30;19930;-85
2022/07/23 10:44:42;;;;;;;;;;;;;;;34.48;26.92;99084.38;4716401;30;19931;-85
2022/07/23 10:49:49;;;;;;;;;;;;;;;35.38;25.56;99075.66;4717046;30;20029;-83
2022/07/23 10:52:24;;;;;;;;;;;;;;;34.41;26.09;99078.84;4713947;30;19930;-84
2022/07/23 10:55:11;;;;;;;;;;;;;;;33.92;26.62;99072.03;4714262;30;19931;-84
2022/07/23 10:57:51;;;;;;;;;;;;;;;34.20;26.67;99076.06;4678341;30;19953;-84
2022/07/23 11:00:24;;;;;;;;;;;;;;;34.38;26.17;99076.81;4679057;30;19978;-83
2022/07/23 11:02:53;;;;;;;;;;;;;;;34.68;25.27;99078.38;4679371;30;19935;-84
2022/07/23 11:05:22;;;;;;;;;;;;;;;34.35;25.84;99066.41;4679338;30;19982;-85
2022/07/23 11:08:04;;;;;;;;;;;;;;;35.11;25.34;99067.78;4679950;30;20038;-84
2022/07/23 11:10:35;;;;;;;;;;;;;;;35.55;25.22;99069.13;4680010;30;20022;-84
2022/07/23 11:13:20;;;;;;;;;;;;;;;36.06;25.13;99061.13;4679594;30;20424;-84
2022/07/23 11:16:05;;;;;;;;;;;;;;;36.83;24.86;99063.53;4677575;30;20042;-84
2022/07/23 11:18:39;;;;;;;;;;;;;;;36.85;24.20;99060.31;4679357;30;20341;-84
2022/07/23 11:21:22;;;;;;;;;;;;;;;36.94;23.31;99066.19;4678632;30;19988;-84
2022/07/23 11:24:06;;;;;;;;;;;;;;;35.50;25.11;99057.53;4679433;30;19931;-84
2022/07/23 11:26:36;;;;;;;;;;;;;;;35.02;25.56;99058.19;4678652;30;19935;-85
2022/07/23 11:29:22;;;;;;;;;;;;;;;35.77;25.08;99066.19;4678537;30;19931;-85
2022/07/23 11:31:52;;;;;;;;;;;;;;;36.04;24.42;99055.13;4665509;30;19978;-84
2022/07/23 11:34:35;;;;;;;;;;;;;;;35.75;24.50;99055.38;4706609;30;20330;-83
2022/07/23 11:37:03;;;;;;;;;;;;;;;35.29;25.06;99045.25;4714835;30;20286;-85
2022/07/23 11:39:31;;;;;;;;;;;;;;;35.30;25.00;99052.47;4724659;30;19974;-84
2022/07/23 11:41:58;;;;;;;;;;;;;;;35.31;25.34;99051.25;4714031;30;20033;-84
2022/07/23 11:44:29;;;;;;;;;;;;;;;36.16;24.78;99048.19;4715124;30;20406;-84
2022/07/23 11:46:57;;;;;;;;;;;;;;;36.88;23.88;99045.41;4714781;30;19931;-84
2022/07/23 11:49:26;;;;;;;;;;;;;;;36.77;23.56;99039.13;4714774;30;20037;-85
2022/07/23 11:52:05;;;;;;;;;;;;;;;37.44;23.46;99037.38;4716900;30;19953;-82
2022/07/23 11:54:33;;;;;;;;;;;;;;;36.59;23.06;99039.31;4715197;30;20284;-83
2022/07/23 11:57:06;;;;;;;;;;;;;;;36.12;24.04;99033.41;4713242;30;19961;-84
2022/07/23 11:59:33;;;;;;;;;;;;;;;36.83;23.37;99035.41;4713602;30;19938;-84
2022/07/23 12:02:04;;;;;;;;;;;;;;;37.42;23.44;99037.00;4716045;30;19997;-83
2022/07/23 12:04:37;;;;;;;;;;;;;;;36.94;23.54;99038.06;4715859;30;20464;-83
2022/07/23 12:07:08;;;;;;;;;;;;;;;37.42;23.31;99025.75;4716004;30;19935;-84
2022/07/23 12:09:35;;;;;;;;;;;;;;;36.94;23.23;99032.47;4714797;30;19938;-82
2022/07/23 12:12:02;;;;;;;;;;;;;;;36.39;24.20;99030.72;4714699;30;19988;-84
2022/07/23 12:14:29;;;;;;;;;;;;;;;36.53;23.78;99024.91;4715794;30;19930;-84
2022/07/23 12:17:10;;;;;;;;;;;;;;;35.95;24.21;99021.09;4713783;30;19930;-83
2022/07/23 12:19:37;;;;;;;;;;;;;;;36.28;24.25;99016.78;4716142;30;19990;-84
2022/07/23 12:22:04;;;;;;;;;;;;;;;36.43;23.85;99012.59;4714355;30;19931;-83
2022/07/23 12:24:33;;;;;;;;;;;;;;;36.40;23.77;99004.22;4713891;30;20411;-84
2022/07/23 12:27:13;;;;;;;;;;;;;;;36.33;23.70;99015.53;4714206;30;19931;-82
2022/07/23 12:29:40;;;;;;;;;;;;;;;37.20;23.39;99004.81;4715497;30;19952;-84
2022/07/23 12:32:24;;;;;;;;;;;;;;;37.27;23.10;99007.50;4714525;30;19970;-85
2022/07/23 12:35:04;;;;;;;;;;;;;;;37.16;23.37;99016.09;4715881;30;19935;-85
2022/07/23 12:37:37;;;;;;;;;;;;;;;36.72;23.94;99003.06;4715961;30;19930;-83
2022/07/23 12:40:23;;;;;;;;;;;;;;;37.28;23.35;99000.69;4715745;30;19938;-84
2022/07/23 12:42:56;;;;;;;;;;;;;;;37.07;23.23;99001.78;4699962;30;19930;-84
2022/07/23 12:45:24;;;;;;;;;;;;;;;37.21;22.88;98995.94;4714574;30;19935;-83
2022/07/23 12:47:53;;;;;;;;;;;;;;;37.01;23.32;98997.81;4715553;30;20459;-83
2022/07/23 12:50:38;;;;;;;;;;;;;;;37.40;22.81;98988.81;4715842;30;20390;-82
2022/07/23 12:53:07;;;;;;;;;;;;;;;37.81;22.66;98987.75;4716111;30;19969;-84
2022/07/23 12:55:43;;;;;;;;;;;;;;;39.05;22.44;98994.19;4733399;30;19931;-86
2022/07/23 12:59:01;;;;;;;;;;;;;;;39.81;21.19;98987.53;4716099;30;19946;-85
2022/07/23 13:01:31;;;;;;;;;;;;;;;40.38;20.14;98993.66;4713153;30;20679;-83
2022/07/23 13:04:19;;;;;;;;;;;;;;;40.43;20.44;98993.09;4715599;30;19930;-83
2022/07/23 13:06:48;;;;;;;;;;;;;;;39.91;20.06;98994.09;4718431;30;20411;-85
2022/07/23 13:09:19;;;;;;;;;;;;;;;38.85;21.25;98980.09;4717492;30;19931;-84
2022/07/23 13:11:46;;;;;;;;;;;;;;;38.12;21.71;98998.88;4718115;30;20396;-83